Aviation Digital Data Service (ADDS)

Output produced by METARs form (1647 UTC 16 June 2019)
found at http://www.aviationweather.gov/metar/data/
 
Forecast for: MYNN (NASSAU INTL , BS)
Text: MYNN 161030Z 1612/1712 13008KT 9999 SCT016CB SCT060 BKN200
Forecast period: 1200 UTC 16 June 2019 to 1200 UTC 17 June 2019
Forecast type: FROM: standard forecast or significant change
Winds: from the SE (130 degrees) at 9 MPH (8 knots; 4.1 m/s)
Visibility: 6 or more miles 10+ km)
Ceiling: 20000 feet AGL
Clouds: scattered clouds at 1600 feet AGL
scattered clouds at 6000 feet AGL
broken clouds at 20000 feet AGL
Weather: no significant weather forecast for this period
Text: PROB30
Forecast period: 1800 UTC 16 June 2019 to 0300 UTC 17 June 2019
Forecast type: TEMPORARY: The following changes expected for less than half the time period
Winds: variable direction winds at 12 MPH (10 knots; 5.1 m/s)
Visibility: 2.98 miles (4.80 km)
Ceiling: 1600 feet AGL
Clouds: broken clouds at 1600 feet AGL
broken clouds at 3000 feet AGL
Weather: TSRA  (rain associated with thunderstorm(s))